createdAt,value
2023-05-01T00:00:12.217Z,86.07
2023-05-01T00:02:43.449Z,86.34
2023-05-01T00:05:11.982Z,86.90
2023-05-01T00:07:42.246Z,86.36
2023-05-01T00:10:13.007Z,86.11
2023-05-01T00:12:44.805Z,86.96
2023-05-01T00:15:15.688Z,87.01
2023-05-01T00:17:48.791Z,87.21
2023-05-01T00:20:17.330Z,87.73
2023-05-01T00:22:48.958Z,87.62
2023-05-01T00:25:17.222Z,88.00
2023-05-01T00:27:49.905Z,88.37
2023-05-01T00:30:18.787Z,89.07
2023-05-01T00:32:48.697Z,89.86
2023-05-01T00:35:19.877Z,89.69
2023-05-01T00:37:49.923Z,88.92
2023-05-01T00:40:18.914Z,89.55
2023-05-01T00:42:49.199Z,89.04
2023-05-01T00:45:18.529Z,88.94
2023-05-01T00:47:49.662Z,89.34
2023-05-01T00:50:20.055Z,88.61
2023-05-01T00:52:52.259Z,88.73
2023-05-01T00:55:20.436Z,88.15
2023-05-01T00:57:53.040Z,88.55
2023-05-01T01:00:24.837Z,88.61
2023-05-01T01:02:58.320Z,88.48
2023-05-01T01:05:31.053Z,88.87
2023-05-01T01:08:05.944Z,88.97
2023-05-01T01:10:38.213Z,88.80
2023-05-01T01:13:11.174Z,89.01
2023-05-01T01:15:44.007Z,89.12
2023-05-01T01:18:16.632Z,89.28
2023-05-01T01:20:50.309Z,89.63
2023-05-01T01:23:34.523Z,89.77
2023-05-01T01:26:13.926Z,89.99
2023-05-01T01:29:01.614Z,89.12
2023-05-01T01:31:34.491Z,89.06
2023-05-01T01:34:06.014Z,88.33
2023-05-01T01:36:44.209Z,88.09
2023-05-01T01:39:19.263Z,88.51
2023-05-01T01:41:51.226Z,89.07
2023-05-01T01:44:27.021Z,88.17
2023-05-01T01:47:00.934Z,89.84
2023-05-01T01:49:35.272Z,90.62
2023-05-01T01:52:06.254Z,90.68
2023-05-01T01:54:38.170Z,90.84
2023-05-01T01:57:10.122Z,90.17
2023-05-01T01:59:39.045Z,90.29
2023-05-01T02:02:09.108Z,90.68
2023-05-01T02:04:46.381Z,90.73
2023-05-01T02:07:16.586Z,90.71
2023-05-01T02:09:48.676Z,91.33
2023-05-01T02:12:20.547Z,91.31
2023-05-01T02:14:50.770Z,91.73
2023-05-01T02:17:22.360Z,91.82
2023-05-01T02:19:57.750Z,92.31
2023-05-01T02:22:27.264Z,91.99
2023-05-01T02:24:57.737Z,92.28
2023-05-01T02:27:36.160Z,92.19
2023-05-01T02:30:07.044Z,91.12
2023-05-01T02:32:38.290Z,91.42
2023-05-01T02:35:10.207Z,91.09
2023-05-01T02:37:40.075Z,91.15
2023-05-01T02:40:10.965Z,91.36
2023-05-01T02:42:42.708Z,91.63
2023-05-01T02:45:15.775Z,91.74
2023-05-01T02:47:47.261Z,91.35
2023-05-01T02:50:18.259Z,91.54
2023-05-01T02:52:48.337Z,91.92
2023-05-01T02:55:19.023Z,89.81
2023-05-01T02:57:48.927Z,90.59
2023-05-01T03:00:19.533Z,91.13
2023-05-01T03:02:49.129Z,90.57
2023-05-01T03:05:21.030Z,90.23
2023-05-01T03:07:51.359Z,90.64
2023-05-01T03:10:19.673Z,90.66
2023-05-01T03:12:48.760Z,90.62
2023-05-01T03:15:17.010Z,89.94
2023-05-01T03:17:50.171Z,89.89
2023-05-01T03:20:19.076Z,89.25
2023-05-01T03:22:51.488Z,89.09
2023-05-01T03:25:20.813Z,88.64
2023-05-01T03:27:50.636Z,89.27
2023-05-01T03:30:19.963Z,89.22
2023-05-01T03:32:49.812Z,89.36
2023-05-01T03:35:18.515Z,89.66
2023-05-01T03:37:48.966Z,89.50
2023-05-01T03:40:21.182Z,88.13
2023-05-01T03:42:49.544Z,88.60
2023-05-01T03:45:19.664Z,89.17
2023-05-01T03:47:49.129Z,88.68
2023-05-01T03:50:17.576Z,88.28
2023-05-01T03:52:46.883Z,88.55
2023-05-01T03:55:14.898Z,88.34
2023-05-01T03:57:47.511Z,87.69
2023-05-01T04:00:15.724Z,88.52
2023-05-01T04:02:44.565Z,89.06
2023-05-01T04:05:15.461Z,88.16
2023-05-01T04:07:44.407Z,87.22
2023-05-01T04:10:13.541Z,86.87
2023-05-01T04:12:42.816Z,85.89
2023-05-01T04:15:15.438Z,85.67
2023-05-01T04:17:45.431Z,85.64
2023-05-01T04:20:13.918Z,85.58
2023-05-01T04:22:42.390Z,85.36
2023-05-01T04:25:11.448Z,84.89
2023-05-01T04:27:41.751Z,85.45
2023-05-01T04:30:15.133Z,85.81
2023-05-01T04:32:46.262Z,85.35
2023-05-01T04:35:16.574Z,85.64
2023-05-01T04:37:47.451Z,84.97
2023-05-01T04:40:17.470Z,83.76
2023-05-01T04:42:46.087Z,83.59
2023-05-01T04:45:16.692Z,82.54
2023-05-01T04:47:47.392Z,82.38
2023-05-01T04:50:17.716Z,78.24
2023-05-01T04:52:48.650Z,80.26
2023-05-01T04:55:18.913Z,79.58
2023-05-01T04:57:47.658Z,80.80
2023-05-01T05:00:19.284Z,78.45
2023-05-01T05:02:50.620Z,76.33
2023-05-01T05:05:21.718Z,74.68
2023-05-01T05:07:51.494Z,75.37
2023-05-01T05:10:20.009Z,74.02
2023-05-01T05:12:49.691Z,71.63
2023-05-01T05:15:21.193Z,71.39
2023-05-01T05:17:51.553Z,71.73
2023-05-01T05:20:19.844Z,71.23
2023-05-01T05:22:49.683Z,70.03
2023-05-01T05:25:20.994Z,69.16
2023-05-01T05:27:50.097Z,67.52
2023-05-01T05:30:20.764Z,68.40
2023-05-01T05:32:52.360Z,69.91
2023-05-01T05:35:23.176Z,67.35
2023-05-01T05:37:52.514Z,65.54
2023-05-01T05:40:21.867Z,65.84
2023-05-01T05:42:53.187Z,64.55
2023-05-01T05:45:23.778Z,63.70
2023-05-01T05:47:51.848Z,63.52
2023-05-01T05:50:20.410Z,63.91
2023-05-01T05:52:52.121Z,62.47
2023-05-01T05:55:20.416Z,61.86
2023-05-01T05:57:48.524Z,62.60
2023-05-01T06:00:20.695Z,61.86
2023-05-01T06:02:54.920Z,60.98
2023-05-01T06:05:24.975Z,61.00
2023-05-01T06:07:54.926Z,60.14
2023-05-01T06:10:24.993Z,59.95
2023-05-01T06:13:01.300Z,60.09
2023-05-01T06:15:37.765Z,59.63
2023-05-01T06:18:08.745Z,58.72
2023-05-01T06:20:39.120Z,58.80
2023-05-01T06:23:08.639Z,57.20
2023-05-01T06:25:39.065Z,59.93
2023-05-01T06:28:08.208Z,57.25
2023-05-01T06:30:36.436Z,56.24
2023-05-01T06:33:04.737Z,57.21
2023-05-01T06:35:34.713Z,56.15
2023-05-01T06:38:04.043Z,56.09
2023-05-01T06:40:34.961Z,56.58
2023-05-01T06:43:03.142Z,55.52
2023-05-01T06:45:31.195Z,55.13
2023-05-01T06:47:59.535Z,54.28
2023-05-01T06:50:30.017Z,54.98
2023-05-01T06:53:01.384Z,54.29
2023-05-01T06:55:33.894Z,54.45
2023-05-01T06:58:15.946Z,54.53
2023-05-01T07:00:55.151Z,54.75
2023-05-01T07:03:27.846Z,52.84
2023-05-01T07:05:56.182Z,54.09
2023-05-01T07:08:28.154Z,54.54
2023-05-01T07:10:57.864Z,53.88
2023-05-01T07:13:28.173Z,53.04
2023-05-01T07:15:57.676Z,53.84
2023-05-01T07:18:26.309Z,54.39
2023-05-01T07:20:55.933Z,53.08
2023-05-01T07:23:27.809Z,53.40
2023-05-01T07:25:57.756Z,53.26
2023-05-01T07:28:26.204Z,53.95
2023-05-01T07:30:54.302Z,53.94
2023-05-01T07:33:24.922Z,52.68
2023-05-01T07:35:58.364Z,53.28
2023-05-01T07:38:26.451Z,53.30
2023-05-01T07:40:54.993Z,52.55
2023-05-01T07:43:26.261Z,52.90
2023-05-01T07:46:00.841Z,53.61
2023-05-01T07:48:30.064Z,52.42
2023-05-01T07:50:58.147Z,52.13
2023-05-01T07:53:26.376Z,51.48
2023-05-01T07:55:55.714Z,50.97
2023-05-01T07:58:25.105Z,52.09
2023-05-01T08:00:56.551Z,51.63
2023-05-01T08:03:29.114Z,52.17
2023-05-01T08:05:59.748Z,51.11
2023-05-01T08:08:29.591Z,52.29
2023-05-01T08:10:59.850Z,51.45
2023-05-01T08:13:30.539Z,51.17
2023-05-01T08:16:05.095Z,49.48
2023-05-01T08:18:34.008Z,48.50
2023-05-01T08:21:02.400Z,50.20
2023-05-01T08:23:33.190Z,49.78
2023-05-01T08:26:01.301Z,48.86
2023-05-01T08:28:29.541Z,50.46
2023-05-01T08:30:58.382Z,50.02
2023-05-01T08:33:32.393Z,48.92
2023-05-01T08:36:03.256Z,48.42
2023-05-01T08:38:41.690Z,49.04
2023-05-01T08:41:10.276Z,48.48
2023-05-01T08:43:38.773Z,49.28
2023-05-01T08:46:08.584Z,47.85
2023-05-01T08:48:41.106Z,48.45
2023-05-01T08:51:12.551Z,47.03
2023-05-01T08:53:42.149Z,48.25
2023-05-01T08:56:12.285Z,47.68
2023-05-01T08:58:41.241Z,47.25
2023-05-01T09:01:10.836Z,48.18
2023-05-01T09:03:44.653Z,48.76
2023-05-01T09:06:15.909Z,48.10
2023-05-01T09:08:43.976Z,49.90
2023-05-01T09:11:13.619Z,46.00
2023-05-01T09:13:43.612Z,47.49
2023-05-01T09:16:13.694Z,47.21
2023-05-01T09:18:43.358Z,47.11
2023-05-01T09:21:12.330Z,46.08
2023-05-01T09:23:42.781Z,46.91
2023-05-01T09:26:14.186Z,46.27
2023-05-01T09:28:48.221Z,46.21
2023-05-01T09:31:23.982Z,45.77
2023-05-01T09:33:57.073Z,46.75
2023-05-01T09:36:27.825Z,48.04
2023-05-01T09:38:57.669Z,45.92
2023-05-01T09:41:27.512Z,47.38
2023-05-01T09:43:59.361Z,46.86
2023-05-01T09:46:27.877Z,45.02
2023-05-01T09:49:01.806Z,46.59
2023-05-01T09:51:30.237Z,47.21
2023-05-01T09:54:00.234Z,46.22
2023-05-01T09:56:29.492Z,44.91
2023-05-01T09:59:01.634Z,45.91
2023-05-01T10:01:42.962Z,44.68
2023-05-01T10:04:13.243Z,45.53
2023-05-01T10:06:41.648Z,45.95
2023-05-01T10:09:16.861Z,46.31
2023-05-01T10:11:57.822Z,45.55
2023-05-01T10:14:29.781Z,44.91
2023-05-01T10:17:02.082Z,43.06
2023-05-01T10:19:31.887Z,44.75
2023-05-01T10:22:00.389Z,46.98
2023-05-01T10:24:28.715Z,46.19
2023-05-01T10:26:58.697Z,45.76
2023-05-01T10:29:34.515Z,46.14
2023-05-01T10:32:03.183Z,45.17
2023-05-01T10:34:37.129Z,44.52
2023-05-01T10:37:07.615Z,44.19
2023-05-01T10:39:37.384Z,45.62
2023-05-01T10:42:09.052Z,44.11
2023-05-01T10:44:38.046Z,44.30
2023-05-01T10:47:41.636Z,44.83
2023-05-01T10:50:15.839Z,44.88
2023-05-01T10:53:05.409Z,42.57
2023-05-01T10:55:34.363Z,44.52
2023-05-01T10:58:04.798Z,46.07
2023-05-01T11:00:37.547Z,45.68
2023-05-01T11:03:25.018Z,44.86
2023-05-01T11:06:10.190Z,45.12
2023-05-01T11:08:40.200Z,44.23
2023-05-01T11:11:29.219Z,43.64
2023-05-01T11:14:01.964Z,43.87
2023-05-01T11:16:43.004Z,43.09
2023-05-01T11:19:12.215Z,43.17
2023-05-01T11:21:42.167Z,42.57
2023-05-01T11:24:12.448Z,44.77
2023-05-01T11:26:41.846Z,46.04
2023-05-01T11:29:10.849Z,46.21
2023-05-01T11:31:41.536Z,45.34
2023-05-01T11:34:12.373Z,43.40
2023-05-01T11:36:52.966Z,45.36
2023-05-01T11:39:22.221Z,45.14
2023-05-01T11:41:52.293Z,44.54
2023-05-01T11:44:21.757Z,46.14
2023-05-01T11:47:00.432Z,45.45
2023-05-01T11:49:29.963Z,45.64
2023-05-01T11:52:01.580Z,46.67
2023-05-01T11:54:31.544Z,45.49
2023-05-01T11:57:00.880Z,43.55
2023-05-01T11:59:29.525Z,42.89
2023-05-01T12:02:02.698Z,42.84
2023-05-01T12:04:32.617Z,43.85
2023-05-01T12:07:02.680Z,43.80
2023-05-01T12:09:34.497Z,44.94
2023-05-01T12:12:04.831Z,44.69
2023-05-01T12:14:34.248Z,44.12
2023-05-01T12:17:04.188Z,41.98
2023-05-01T12:19:33.953Z,42.70
2023-05-01T12:22:12.273Z,42.67
2023-05-01T12:24:49.553Z,41.95
2023-05-01T12:27:17.623Z,42.45
2023-05-01T12:29:48.322Z,43.88
2023-05-01T12:32:18.228Z,44.08
2023-05-01T12:34:47.112Z,43.48
2023-05-01T12:37:18.561Z,42.16
2023-05-01T12:39:50.567Z,41.59
2023-05-01T12:42:19.148Z,40.53
2023-05-01T12:44:49.068Z,41.70
2023-05-01T12:47:17.741Z,42.29
2023-05-01T12:49:47.373Z,42.50
2023-05-01T12:52:27.503Z,42.60
2023-05-01T12:55:02.758Z,41.59
2023-05-01T12:57:32.777Z,41.45
2023-05-01T13:00:02.131Z,41.91
2023-05-01T13:02:33.222Z,42.28
2023-05-01T13:05:10.083Z,39.96
2023-05-01T13:07:40.068Z,43.05
2023-05-01T13:10:09.882Z,42.10
2023-05-01T13:12:44.697Z,44.03
2023-05-01T13:15:20.550Z,42.07
2023-05-01T13:17:50.285Z,41.88
2023-05-01T13:20:27.305Z,41.81
2023-05-01T13:22:57.866Z,41.14
2023-05-01T13:25:29.690Z,41.53
2023-05-01T13:27:58.509Z,42.40
2023-05-01T13:30:32.861Z,42.80
2023-05-01T13:33:03.317Z,42.22
2023-05-01T13:35:32.416Z,42.61
2023-05-01T13:38:04.886Z,42.12
2023-05-01T13:40:37.544Z,42.23
2023-05-01T13:43:14.061Z,41.24
2023-05-01T13:45:43.996Z,41.02
2023-05-01T13:48:12.240Z,41.72
2023-05-01T13:50:43.844Z,40.17
2023-05-01T13:53:15.147Z,41.10
2023-05-01T13:55:48.910Z,41.72
2023-05-01T13:58:19.946Z,41.11
2023-05-01T14:00:48.279Z,40.54
2023-05-01T14:03:20.976Z,40.63
2023-05-01T14:05:50.901Z,40.89
2023-05-01T14:08:34.363Z,40.14
2023-05-01T14:11:07.137Z,41.11
2023-05-01T14:13:35.968Z,40.54
2023-05-01T14:16:10.497Z,40.45
2023-05-01T14:18:45.983Z,40.40
2023-05-01T14:21:15.488Z,40.55
2023-05-01T14:23:45.285Z,41.97
2023-05-01T14:26:20.909Z,40.43
2023-05-01T14:28:49.771Z,40.39
2023-05-01T14:31:22.520Z,40.45
2023-05-01T14:33:52.054Z,39.58
2023-05-01T14:36:20.041Z,39.97
2023-05-01T14:39:00.244Z,40.00
2023-05-01T14:41:29.536Z,41.36
2023-05-01T14:43:58.345Z,40.36
2023-05-01T14:46:31.775Z,40.20
2023-05-01T14:49:00.936Z,41.87
2023-05-01T14:51:33.607Z,42.15
2023-05-01T14:54:03.781Z,40.71
2023-05-01T14:56:31.792Z,41.04
2023-05-01T14:59:00.915Z,42.05
2023-05-01T15:01:29.527Z,42.18
2023-05-01T15:03:58.833Z,41.59
2023-05-01T15:06:32.054Z,41.50
2023-05-01T15:09:00.765Z,40.43
2023-05-01T15:11:31.532Z,41.39
2023-05-01T15:14:05.379Z,41.95
2023-05-01T15:16:33.831Z,41.64
2023-05-01T15:19:04.161Z,41.35
2023-05-01T15:21:33.467Z,41.22
2023-05-01T15:24:01.763Z,42.15
2023-05-01T15:26:31.767Z,42.22
2023-05-01T15:29:00.519Z,42.64
2023-05-01T15:31:30.836Z,43.24
2023-05-01T15:34:01.392Z,43.09
2023-05-01T15:36:30.817Z,43.14
2023-05-01T15:39:00.225Z,42.46
2023-05-01T15:41:29.868Z,41.47
2023-05-01T15:44:00.780Z,42.09
2023-05-01T15:46:28.986Z,42.99
2023-05-01T15:48:57.137Z,43.07
2023-05-01T15:51:26.129Z,42.47
2023-05-01T15:53:54.408Z,42.14
2023-05-01T15:56:22.883Z,41.58
2023-05-01T15:58:52.075Z,41.68
2023-05-01T16:01:21.976Z,42.85
2023-05-01T16:03:52.528Z,42.52
2023-05-01T16:06:22.198Z,41.91
2023-05-01T16:08:51.176Z,42.83
2023-05-01T16:11:20.070Z,42.52
2023-05-01T16:13:50.679Z,42.59
2023-05-01T16:16:21.389Z,42.57
2023-05-01T16:18:54.032Z,42.67
2023-05-01T16:21:22.468Z,42.80
2023-05-01T16:23:51.769Z,43.74
2023-05-01T16:26:26.765Z,43.57
2023-05-01T16:28:58.572Z,44.28
2023-05-01T16:31:27.993Z,44.06
2023-05-01T16:33:58.251Z,43.41
2023-05-01T16:36:26.542Z,44.58
2023-05-01T16:38:54.692Z,45.09
2023-05-01T16:41:25.068Z,45.06
2023-05-01T16:43:54.461Z,44.99
2023-05-01T16:46:23.688Z,44.54
2023-05-01T16:48:52.839Z,44.38
2023-05-01T16:51:22.806Z,44.02
2023-05-01T16:53:51.332Z,45.51
2023-05-01T16:56:23.262Z,44.85
2023-05-01T16:58:51.437Z,44.11
2023-05-01T17:01:21.106Z,44.91
2023-05-01T17:03:51.977Z,45.65
2023-05-01T17:06:20.315Z,47.28
2023-05-01T17:08:52.120Z,47.10
2023-05-01T17:11:22.757Z,47.86
2023-05-01T17:13:52.109Z,48.23
2023-05-01T17:16:20.956Z,48.15
2023-05-01T17:18:52.130Z,48.50
2023-05-01T17:21:20.156Z,49.03
2023-05-01T17:23:49.756Z,48.82
2023-05-01T17:26:23.300Z,48.84
2023-05-01T17:28:52.223Z,48.79
2023-05-01T17:31:22.524Z,49.26
2023-05-01T17:33:52.545Z,49.76
2023-05-01T17:36:21.471Z,49.67
2023-05-01T17:38:50.290Z,49.47
2023-05-01T17:41:19.992Z,49.00
2023-05-01T17:43:49.874Z,48.82
2023-05-01T17:46:18.543Z,48.70
2023-05-01T17:48:47.377Z,49.51
2023-05-01T17:51:15.673Z,49.95
2023-05-01T17:53:44.133Z,50.11
2023-05-01T17:56:14.849Z,51.20
2023-05-01T17:58:44.670Z,51.52
2023-05-01T18:01:13.600Z,51.72
2023-05-01T18:03:42.593Z,51.45
2023-05-01T18:06:12.977Z,51.49
2023-05-01T18:08:43.131Z,51.43
2023-05-01T18:11:11.389Z,51.74
2023-05-01T18:13:42.480Z,51.67
2023-05-01T18:16:13.198Z,51.54
2023-05-01T18:18:43.212Z,51.46
2023-05-01T18:21:11.554Z,51.55
2023-05-01T18:23:40.072Z,51.65
2023-05-01T18:26:08.708Z,52.32
2023-05-01T18:28:36.885Z,52.67
2023-05-01T18:31:05.309Z,52.95
2023-05-01T18:33:35.340Z,52.67
2023-05-01T18:36:04.755Z,52.90
2023-05-01T18:38:36.909Z,53.22
2023-05-01T18:41:05.937Z,53.54
2023-05-01T18:43:34.550Z,54.25
2023-05-01T18:46:02.794Z,55.43
2023-05-01T18:48:31.078Z,55.70
2023-05-01T18:53:35.762Z,55.78
2023-05-01T18:56:04.672Z,56.00
2023-05-01T18:58:34.464Z,55.99
2023-05-01T19:01:03.899Z,56.09
2023-05-01T19:03:34.511Z,55.91
2023-05-01T19:06:10.503Z,55.95
2023-05-01T19:08:43.931Z,56.19
2023-05-01T19:11:12.604Z,56.68
2023-05-01T19:13:42.338Z,56.70
2023-05-01T19:16:11.847Z,57.00
2023-05-01T19:18:39.994Z,57.05
2023-05-01T19:21:11.918Z,56.94
2023-05-01T19:23:41.437Z,57.40
2023-05-01T19:26:12.871Z,57.61
2023-05-01T19:28:43.750Z,57.41
2023-05-01T19:31:14.503Z,57.92
2023-05-01T19:33:46.722Z,57.32
2023-05-01T19:36:19.196Z,57.19
2023-05-01T19:38:49.437Z,57.34
2023-05-01T19:41:17.908Z,57.48
2023-05-01T19:43:49.013Z,57.48
2023-05-01T19:46:17.921Z,57.59
2023-05-01T19:48:47.023Z,57.88
2023-05-01T19:51:17.555Z,58.33
2023-05-01T19:53:47.453Z,58.08
2023-05-01T19:56:16.230Z,58.09
2023-05-01T19:58:46.704Z,58.02
2023-05-01T20:01:17.009Z,58.00
2023-05-01T20:03:47.134Z,58.35
2023-05-01T20:06:16.698Z,58.29
2023-05-01T20:08:47.385Z,58.48
2023-05-01T20:11:15.811Z,58.24
2023-05-01T20:13:45.447Z,57.87
2023-05-01T20:16:14.934Z,58.10
2023-05-01T20:18:43.157Z,58.43
2023-05-01T20:21:11.571Z,58.82
2023-05-01T20:23:41.744Z,58.74
2023-05-01T20:26:15.431Z,59.21
2023-05-01T20:28:46.349Z,59.21
2023-05-01T20:31:21.362Z,59.47
2023-05-01T20:33:50.095Z,59.69
2023-05-01T20:36:25.363Z,59.15
2023-05-01T20:38:58.057Z,59.40
2023-05-01T20:41:29.163Z,59.18
2023-05-01T20:43:57.439Z,59.54
2023-05-01T20:46:25.980Z,59.52
2023-05-01T20:48:55.997Z,60.48
2023-05-01T20:51:28.510Z,60.48
2023-05-01T20:53:59.234Z,60.01
2023-05-01T20:56:27.433Z,60.29
2023-05-01T20:58:56.148Z,60.27
2023-05-01T21:01:24.503Z,60.39
2023-05-01T21:03:53.145Z,60.47
2023-05-01T21:06:23.108Z,60.90
2023-05-01T21:08:51.491Z,60.92
2023-05-01T21:11:21.065Z,60.70
2023-05-01T21:13:49.235Z,60.24
2023-05-01T21:16:18.392Z,60.39
2023-05-01T21:18:48.153Z,60.53
2023-05-01T21:21:19.817Z,60.53
2023-05-01T21:23:50.488Z,60.47
2023-05-01T21:26:20.388Z,60.32
2023-05-01T21:28:52.909Z,60.58
2023-05-01T21:31:21.017Z,60.35
2023-05-01T21:33:50.561Z,60.40
2023-05-01T21:36:19.102Z,60.46
2023-05-01T21:38:47.628Z,60.57
2023-05-01T21:41:16.330Z,60.35
2023-05-01T21:43:46.356Z,60.40
2023-05-01T21:46:16.965Z,60.57
2023-05-01T21:48:49.312Z,60.38
2023-05-01T21:51:18.724Z,60.81
2023-05-01T21:53:46.681Z,61.05
2023-05-01T21:56:16.915Z,61.11
2023-05-01T21:58:46.528Z,61.29
2023-05-01T22:01:18.979Z,61.74
2023-05-01T22:03:50.014Z,61.45
2023-05-01T22:06:18.938Z,61.63
2023-05-01T22:08:51.289Z,61.90
2023-05-01T22:11:19.626Z,61.96
2023-05-01T22:13:48.169Z,62.05
2023-05-01T22:16:16.351Z,62.13
2023-05-01T22:18:48.609Z,62.32
2023-05-01T22:21:25.324Z,62.29
2023-05-01T22:23:55.486Z,62.22
2023-05-01T22:26:23.765Z,61.70
2023-05-01T22:28:52.990Z,62.00
2023-05-01T22:31:21.143Z,63.01
2023-05-01T22:33:50.314Z,63.37
2023-05-01T22:36:26.261Z,62.83
2023-05-01T22:38:57.007Z,63.81
2023-05-01T22:41:25.149Z,63.80
2023-05-01T22:43:54.316Z,64.29
2023-05-01T22:46:23.195Z,64.38
2023-05-01T22:48:53.169Z,65.34
2023-05-01T22:51:24.786Z,64.91
2023-05-01T22:53:53.012Z,64.69
2023-05-01T22:56:22.162Z,65.04
2023-05-01T22:58:53.362Z,64.17
2023-05-01T23:01:23.222Z,64.90
2023-05-01T23:03:53.091Z,66.08
2023-05-01T23:06:27.131Z,64.56
2023-05-01T23:08:57.856Z,64.85
2023-05-01T23:11:29.603Z,65.71
2023-05-01T23:14:01.208Z,65.16
2023-05-01T23:16:35.175Z,62.52
2023-05-01T23:19:03.645Z,62.55
2023-05-01T23:21:36.275Z,62.84
2023-05-01T23:24:07.534Z,62.87
2023-05-01T23:26:36.436Z,66.09
2023-05-01T23:29:12.256Z,63.38
2023-05-01T23:31:46.536Z,64.15
2023-05-01T23:34:16.107Z,63.52
2023-05-01T23:36:49.143Z,63.43
2023-05-01T23:39:18.670Z,66.45
2023-05-01T23:41:47.792Z,65.08
2023-05-01T23:44:17.652Z,64.94
2023-05-01T23:46:49.239Z,64.45
2023-05-01T23:49:17.624Z,62.89
2023-05-01T23:51:49.037Z,62.51
2023-05-01T23:54:19.786Z,66.82
2023-05-01T23:56:52.705Z,65.01
2023-05-01T23:59:23.088Z,65.11
